Time;durP1;ratioP1;P1;durP2;ratioP2;P2;SDS_P1;SDS_P2;PMS_P1;PMS_P2;Temp;Humidity;BMP_temperature;BMP_pressure;BME280_temperature;BME280_humidity;BME280_pressure;Samples;Min_cycle;Max_cycle;Signal;HPM_P1;HPM_P2
2022/09/21 00:02:20;;;;;;;;;4.67;4.67;;;;;;;;5048823;28;47198;-72
2022/09/21 00:04:45;;;;;;;;;7.00;5.67;;;;;;;;5069613;27;45885;-72
2022/09/21 00:07:10;;;;;;;;;3.00;3.00;;;;;;;;5070782;27;45825;-71
2022/09/21 00:09:36;;;;;;;;;5.00;5.00;;;;;;;;5067379;27;45398;-76
2022/09/21 00:12:01;;;;;;;;;8.00;4.67;;;;;;;;5046775;28;46801;-75
2022/09/21 00:14:27;;;;;;;;;3.33;2.33;;;;;;;;5074425;27;45587;-73
2022/09/21 00:16:53;;;;;;;;;3.33;3.33;;;;;;;;5067649;27;45708;-74
2022/09/21 00:19:18;;;;;;;;;6.33;5.67;;;;;;;;5048270;28;45319;-73
2022/09/21 00:21:43;;;;;;;;;5.67;3.33;;;;;;;;5056018;28;46235;-73
2022/09/21 00:24:09;;;;;;;;;8.00;4.33;;;;;;;;5074683;27;45340;-74
2022/09/21 00:26:34;;;;;;;;;6.33;5.33;;;;;;;;5061463;28;45384;-76
2022/09/21 00:29:01;;;;;;;;;6.33;4.00;;;;;;;;5055423;28;45326;-75
2022/09/21 00:31:27;;;;;;;;;3.00;3.00;;;;;;;;5056904;27;45668;-77
2022/09/21 00:33:52;;;;;;;;;3.67;3.67;;;;;;;;5075004;27;45812;-76
2022/09/21 00:36:19;;;;;;;;;3.67;3.67;;;;;;;;5060599;28;45314;-77
2022/09/21 00:38:48;;;;;;;;;3.00;3.00;;;;;;;;5055004;27;45346;-76
2022/09/21 00:41:13;;;;;;;;;9.67;5.67;;;;;;;;5058098;28;46745;-71
2022/09/21 00:43:46;;;;;;;;;5.33;4.00;;;;;;;;5054327;28;45629;-71
2022/09/21 00:46:20;;;;;;;;;7.00;3.33;;;;;;;;5073866;28;45692;-70
2022/09/21 00:48:45;;;;;;;;;4.33;4.33;;;;;;;;5073640;27;45815;-72
2022/09/21 00:51:11;;;;;;;;;1.67;1.67;;;;;;;;5055545;28;47940;-72
2022/09/21 00:53:37;;;;;;;;;3.33;3.33;;;;;;;;5074023;28;45433;-72
2022/09/21 00:56:03;;;;;;;;;5.33;4.00;;;;;;;;5066467;27;45525;-77
2022/09/21 00:58:30;;;;;;;;;4.67;3.33;;;;;;;;5054795;28;45682;-72
2022/09/21 01:00:57;;;;;;;;;6.67;5.00;;;;;;;;5070053;28;46927;-70
2022/09/21 01:03:22;;;;;;;;;6.00;5.33;;;;;;;;5073557;28;45389;-74
2022/09/21 01:05:48;;;;;;;;;7.67;4.00;;;;;;;;5048622;28;45660;-72
2022/09/21 01:08:14;;;;;;;;;4.00;3.33;;;;;;;;5061280;27;45546;-73
2022/09/21 01:11:00;;;;;;;;;4.00;3.33;;;;;;;;5064499;28;46904;-73
2022/09/21 01:13:33;;;;;;;;;4.33;2.00;;;;;;;;5015646;27;45576;-75
2022/09/21 01:16:10;;;;;;;;;3.00;3.00;;;;;;;;5060039;28;45329;-75
2022/09/21 01:18:41;;;;;;;;;4.00;4.00;;;;;;;;5070001;27;45704;-75
2022/09/21 01:21:13;;;;;;;;;2.00;2.00;;;;;;;;5059855;27;45677;-75
2022/09/21 01:23:53;;;;;;;;;2.67;2.67;;;;;;;;5063978;28;45691;-75
2022/09/21 01:26:36;;;;;;;;;5.00;5.00;;;;;;;;5060766;27;45720;-75
2022/09/21 01:29:12;;;;;;;;;2.67;2.67;;;;;;;;5083693;27;45499;-74
2022/09/21 01:31:43;;;;;;;;;4.33;3.67;;;;;;;;5055635;28;45679;-75
2022/09/21 01:34:31;;;;;;;;;3.00;3.00;;;;;;;;5059029;27;45326;-73
2022/09/21 01:36:59;;;;;;;;;9.00;5.33;;;;;;;;5069818;27;45712;-73
2022/09/21 01:39:25;;;;;;;;;9.33;7.67;;;;;;;;5079400;27;45443;-71
2022/09/21 01:41:51;;;;;;;;;9.00;7.67;;;;;;;;5075647;27;45469;-73
2022/09/21 01:44:26;;;;;;;;;11.33;10.00;;;;;;;;5061385;28;45455;-73
2022/09/21 01:46:51;;;;;;;;;8.00;6.67;;;;;;;;5068629;27;45361;-74
2022/09/21 01:49:29;;;;;;;;;9.00;7.67;;;;;;;;5106356;27;45631;-72
2022/09/21 01:51:57;;;;;;;;;11.67;10.00;;;;;;;;5091597;27;45871;-72
2022/09/21 01:54:35;;;;;;;;;6.33;5.33;;;;;;;;5089206;27;45758;-71
2022/09/21 01:57:06;;;;;;;;;9.33;9.33;;;;;;;;5087122;27;45565;-72
2022/09/21 01:59:35;;;;;;;;;7.67;6.00;;;;;;;;5079970;27;46224;-71
2022/09/21 02:02:05;;;;;;;;;5.33;5.00;;;;;;;;5088414;27;45661;-71
2022/09/21 02:04:30;;;;;;;;;5.33;5.33;;;;;;;;5089334;27;45829;-73
2022/09/21 02:06:55;;;;;;;;;8.33;7.33;;;;;;;;5088749;27;45683;-75
2022/09/21 02:09:22;;;;;;;;;8.67;7.67;;;;;;;;5089249;27;46808;-75
2022/09/21 02:11:47;;;;;;;;;10.33;10.33;;;;;;;;5089055;27;45813;-74
2022/09/21 02:14:15;;;;;;;;;12.00;11.00;;;;;;;;5088600;27;45345;-72
2022/09/21 02:16:52;;;;;;;;;13.00;10.67;;;;;;;;5088436;27;45549;-71
2022/09/21 02:19:25;;;;;;;;;11.67;9.67;;;;;;;;5087288;27;47409;-73
2022/09/21 02:22:12;;;;;;;;;11.33;11.33;;;;;;;;5088265;27;45392;-73
2022/09/21 02:24:41;;;;;;;;;13.33;12.67;;;;;;;;5088818;27;45383;-73
2022/09/21 02:27:15;;;;;;;;;14.67;11.00;;;;;;;;5088733;27;45705;-74
2022/09/21 02:29:48;;;;;;;;;11.67;10.67;;;;;;;;5087958;27;46502;-71
2022/09/21 02:32:34;;;;;;;;;10.33;10.33;;;;;;;;5087659;27;45945;-70
2022/09/21 02:35:21;;;;;;;;;11.00;11.00;;;;;;;;5088767;27;45411;-71
2022/09/21 02:37:55;;;;;;;;;11.00;10.33;;;;;;;;5091879;27;45974;-69
2022/09/21 02:40:21;;;;;;;;;12.33;11.00;;;;;;;;5093683;27;46211;-74
2022/09/21 02:42:49;;;;;;;;;12.67;12.00;;;;;;;;5088536;27;45501;-73
2022/09/21 02:45:19;;;;;;;;;9.67;7.00;;;;;;;;5088569;27;45379;-70
2022/09/21 02:47:47;;;;;;;;;12.00;11.67;;;;;;;;5087163;27;46318;-72
2022/09/21 02:50:16;;;;;;;;;9.00;7.00;;;;;;;;5087727;27;45668;-73
2022/09/21 02:52:42;;;;;;;;;8.00;6.00;;;;;;;;5088754;27;45724;-73
2022/09/21 02:55:08;;;;;;;;;7.00;5.67;;;;;;;;5088073;27;45710;-73
2022/09/21 02:57:35;;;;;;;;;7.67;5.67;;;;;;;;5088327;27;45735;-73
2022/09/21 03:00:00;;;;;;;;;8.33;6.00;;;;;;;;5075144;27;47689;-75
2022/09/21 03:02:34;;;;;;;;;7.67;5.33;;;;;;;;5066571;27;45346;-74
2022/09/21 03:04:59;;;;;;;;;9.00;8.67;;;;;;;;5074075;27;45387;-76
2022/09/21 03:07:25;;;;;;;;;15.67;12.33;;;;;;;;5072907;28;45631;-75
2022/09/21 03:09:50;;;;;;;;;11.67;10.67;;;;;;;;5074363;28;46002;-72
2022/09/21 03:12:15;;;;;;;;;18.33;16.67;;;;;;;;5074341;27;45363;-74
2022/09/21 03:14:40;;;;;;;;;15.33;12.00;;;;;;;;5074357;27;45529;-74
2022/09/21 03:17:05;;;;;;;;;20.67;17.67;;;;;;;;5074500;27;45704;-73
2022/09/21 03:19:31;;;;;;;;;15.00;15.00;;;;;;;;5074614;27;45874;-75
2022/09/21 03:21:56;;;;;;;;;17.00;14.33;;;;;;;;5084969;27;45730;-76
2022/09/21 03:27:05;;;;;;;;;14.67;12.33;;;;;;;;5080021;27;45651;-75
2022/09/21 03:29:30;;;;;;;;;13.67;13.33;;;;;;;;5063824;27;45728;-72
2022/09/21 03:31:56;;;;;;;;;14.00;14.00;;;;;;;;5059314;27;45900;-75
2022/09/21 03:34:21;;;;;;;;;17.67;16.67;;;;;;;;5075439;27;45253;-76
2022/09/21 03:36:47;;;;;;;;;16.00;13.00;;;;;;;;5074231;27;45709;-78
2022/09/21 03:39:13;;;;;;;;;18.67;17.00;;;;;;;;5074341;27;46244;-77
2022/09/21 03:41:38;;;;;;;;;20.00;16.00;;;;;;;;5086575;27;45261;-73
2022/09/21 03:44:04;;;;;;;;;9.00;8.67;;;;;;;;5074583;27;45789;-73
2022/09/21 03:46:29;;;;;;;;;16.00;14.00;;;;;;;;5073992;27;45498;-74
2022/09/21 03:48:54;;;;;;;;;12.67;12.67;;;;;;;;5072934;27;47208;-74
2022/09/21 03:51:19;;;;;;;;;18.33;14.00;;;;;;;;5073965;27;45849;-73
2022/09/21 03:53:45;;;;;;;;;15.00;14.33;;;;;;;;5075799;27;45400;-74
2022/09/21 03:56:10;;;;;;;;;16.67;15.00;;;;;;;;5083594;27;45926;-74
2022/09/21 03:58:35;;;;;;;;;16.00;15.00;;;;;;;;5073254;27;46569;-74
2022/09/21 04:01:02;;;;;;;;;14.00;14.00;;;;;;;;5073467;27;45524;-73
2022/09/21 04:03:28;;;;;;;;;15.67;15.00;;;;;;;;5081690;27;45420;-72
2022/09/21 04:05:54;;;;;;;;;18.00;13.67;;;;;;;;5073255;27;45665;-71
2022/09/21 04:08:19;;;;;;;;;17.33;13.33;;;;;;;;5070684;27;45724;-71
2022/09/21 04:10:44;;;;;;;;;12.00;12.00;;;;;;;;5058084;27;45293;-70
2022/09/21 04:13:12;;;;;;;;;15.67;14.33;;;;;;;;5072129;27;45694;-71
2022/09/21 04:15:37;;;;;;;;;15.67;15.67;;;;;;;;5073511;27;45509;-70
2022/09/21 04:18:02;;;;;;;;;18.00;16.00;;;;;;;;5072988;27;45910;-70
2022/09/21 04:20:28;;;;;;;;;16.00;14.67;;;;;;;;5073371;27;46495;-71
2022/09/21 04:22:53;;;;;;;;;17.67;14.67;;;;;;;;5072940;27;45729;-72
2022/09/21 04:25:19;;;;;;;;;20.67;15.33;;;;;;;;5072729;27;45518;-72
2022/09/21 04:27:44;;;;;;;;;14.00;14.00;;;;;;;;5072733;27;47291;-70
2022/09/21 04:30:10;;;;;;;;;16.00;16.00;;;;;;;;5073149;28;45423;-71
2022/09/21 04:32:36;;;;;;;;;15.33;15.33;;;;;;;;5075948;27;45809;-72
2022/09/21 04:35:01;;;;;;;;;22.00;16.67;;;;;;;;5072642;28;45376;-71
2022/09/21 04:37:26;;;;;;;;;15.33;11.67;;;;;;;;5070904;27;46195;-73
2022/09/21 04:39:52;;;;;;;;;39.00;28.67;;;;;;;;5071250;27;45462;-72
2022/09/21 04:42:17;;;;;;;;;15.00;14.00;;;;;;;;5070955;27;45845;-70
2022/09/21 04:44:42;;;;;;;;;14.00;13.00;;;;;;;;5071946;27;45478;-72
2022/09/21 04:47:08;;;;;;;;;14.67;14.67;;;;;;;;5082533;27;45713;-73
2022/09/21 04:49:33;;;;;;;;;27.67;21.67;;;;;;;;5105725;27;45722;-75
2022/09/21 04:51:59;;;;;;;;;18.00;15.00;;;;;;;;5079941;27;45700;-71
2022/09/21 04:54:24;;;;;;;;;23.67;21.67;;;;;;;;5071457;27;45649;-72
2022/09/21 04:56:49;;;;;;;;;20.00;17.00;;;;;;;;5068661;27;47063;-74
2022/09/21 04:59:14;;;;;;;;;11.67;10.67;;;;;;;;5072420;27;45666;-72
2022/09/21 05:01:40;;;;;;;;;23.67;18.67;;;;;;;;5073257;27;45660;-72
2022/09/21 05:04:05;;;;;;;;;18.00;15.33;;;;;;;;5084137;27;45586;-72
2022/09/21 05:06:31;;;;;;;;;11.00;9.33;;;;;;;;5072379;27;45293;-77
2022/09/21 05:11:41;;;;;;;;;10.00;9.00;;;;;;;;5072288;27;45692;-75
2022/09/21 05:14:06;;;;;;;;;9.00;9.00;;;;;;;;5070176;27;46521;-75
2022/09/21 05:16:32;;;;;;;;;8.00;8.00;;;;;;;;5066527;28;47223;-70
2022/09/21 05:18:57;;;;;;;;;10.33;10.33;;;;;;;;5069228;27;45484;-68
2022/09/21 05:21:22;;;;;;;;;16.67;12.33;;;;;;;;5068144;27;45434;-74
2022/09/21 05:23:47;;;;;;;;;13.33;11.33;;;;;;;;5076764;27;45595;-75
2022/09/21 05:26:13;;;;;;;;;12.00;12.00;;;;;;;;5083113;27;45398;-76
2022/09/21 05:28:38;;;;;;;;;12.33;10.67;;;;;;;;5081644;27;45734;-76
2022/09/21 05:31:12;;;;;;;;;13.00;10.33;;;;;;;;5083125;27;45501;-76
2022/09/21 05:33:41;;;;;;;;;18.33;17.33;;;;;;;;5091037;27;45494;-71
2022/09/21 05:36:09;;;;;;;;;15.67;12.67;;;;;;;;5084418;27;46072;-78
2022/09/21 05:38:35;;;;;;;;;14.33;12.67;;;;;;;;5078360;27;45470;-77
2022/09/21 05:41:00;;;;;;;;;14.00;13.00;;;;;;;;5087539;27;45253;-79
2022/09/21 05:43:25;;;;;;;;;20.67;17.67;;;;;;;;5070336;27;45569;-77
2022/09/21 05:45:55;;;;;;;;;13.33;12.33;;;;;;;;5067761;27;46181;-79
2022/09/21 05:48:25;;;;;;;;;19.00;13.33;;;;;;;;5055111;27;46828;-76
2022/09/21 05:51:14;;;;;;;;;15.67;14.00;;;;;;;;5064950;27;45810;-74
2022/09/21 05:53:45;;;;;;;;;10.00;9.67;;;;;;;;5056451;27;46288;-77
2022/09/21 05:56:19;;;;;;;;;15.33;13.00;;;;;;;;5067513;27;45592;-79
2022/09/21 05:58:45;;;;;;;;;18.00;14.33;;;;;;;;5068962;27;45753;-75
2022/09/21 06:01:19;;;;;;;;;17.33;13.33;;;;;;;;5066988;27;45587;-75
2022/09/21 06:03:47;;;;;;;;;15.33;12.33;;;;;;;;5081976;27;45524;-77
2022/09/21 06:06:12;;;;;;;;;16.00;15.67;;;;;;;;5080296;27;46138;-77
2022/09/21 06:08:38;;;;;;;;;18.00;12.33;;;;;;;;5072644;27;45659;-76
2022/09/21 06:11:03;;;;;;;;;14.33;12.00;;;;;;;;5071609;27;45870;-79
2022/09/21 06:13:29;;;;;;;;;17.33;14.33;;;;;;;;5077562;27;45903;-76
2022/09/21 06:15:54;;;;;;;;;15.33;13.33;;;;;;;;5073920;27;48022;-76
2022/09/21 06:18:19;;;;;;;;;19.67;14.00;;;;;;;;5081961;27;45762;-73
2022/09/21 06:20:45;;;;;;;;;17.33;13.67;;;;;;;;5067179;27;45762;-77
2022/09/21 06:23:12;;;;;;;;;21.00;16.33;;;;;;;;5057242;27;46849;-75
2022/09/21 06:25:37;;;;;;;;;16.00;14.00;;;;;;;;5058145;27;45694;-76
2022/09/21 06:28:12;;;;;;;;;16.67;15.33;;;;;;;;5064695;28;45841;-79
2022/09/21 06:30:40;;;;;;;;;15.00;13.67;;;;;;;;5060804;27;45491;-81
2022/09/21 06:33:06;;;;;;;;;19.33;15.67;;;;;;;;5094123;27;45861;-77
2022/09/21 06:35:32;;;;;;;;;18.67;18.00;;;;;;;;5067835;27;45593;-77
2022/09/21 06:38:03;;;;;;;;;16.33;12.33;;;;;;;;5062129;27;46084;-72
2022/09/21 06:40:28;;;;;;;;;13.67;13.33;;;;;;;;5057970;27;45877;-73
2022/09/21 06:42:57;;;;;;;;;14.33;14.33;;;;;;;;5063575;27;46106;-77
2022/09/21 06:45:23;;;;;;;;;11.67;11.33;;;;;;;;5073253;27;46122;-76
2022/09/21 06:47:48;;;;;;;;;12.33;10.00;;;;;;;;5082754;27;45476;-74
2022/09/21 06:50:14;;;;;;;;;12.00;10.00;;;;;;;;5087380;27;45523;-76
2022/09/21 06:52:40;;;;;;;;;13.67;9.33;;;;;;;;5085632;27;46466;-78
2022/09/21 06:55:06;;;;;;;;;11.33;10.33;;;;;;;;5085044;27;46165;-74
2022/09/21 06:57:31;;;;;;;;;7.67;7.67;;;;;;;;5072383;27;45513;-78
2022/09/21 06:59:59;;;;;;;;;8.00;8.00;;;;;;;;5072073;27;45446;-77
2022/09/21 07:02:25;;;;;;;;;8.33;6.67;;;;;;;;5076326;27;46234;-77
2022/09/21 07:04:50;;;;;;;;;10.67;8.00;;;;;;;;5076132;27;45927;-76
2022/09/21 07:07:15;;;;;;;;;7.00;6.00;;;;;;;;5081566;27;45359;-77
2022/09/21 07:09:40;;;;;;;;;8.33;8.33;;;;;;;;5079870;27;45304;-76
2022/09/21 07:12:06;;;;;;;;;10.33;8.00;;;;;;;;5080772;27;45559;-76
2022/09/21 07:14:32;;;;;;;;;10.67;7.67;;;;;;;;5082856;27;45502;-78
2022/09/21 07:16:57;;;;;;;;;11.67;9.33;;;;;;;;5091998;27;45475;-76
2022/09/21 07:19:22;;;;;;;;;10.00;8.67;;;;;;;;5075364;27;45758;-83
2022/09/21 07:21:48;;;;;;;;;10.67;10.67;;;;;;;;5075527;27;46174;-82
2022/09/21 07:24:13;;;;;;;;;9.00;8.00;;;;;;;;5073701;27;45408;-83
2022/09/21 07:26:39;;;;;;;;;11.00;8.33;;;;;;;;5072793;27;47090;-82
2022/09/21 07:29:04;;;;;;;;;9.33;8.33;;;;;;;;5070210;27;45438;-81
2022/09/21 07:31:29;;;;;;;;;10.33;8.67;;;;;;;;5073941;27;45675;-81
2022/09/21 07:33:57;;;;;;;;;8.67;6.33;;;;;;;;5073635;27;45759;-78
2022/09/21 07:36:22;;;;;;;;;13.67;8.67;;;;;;;;5083242;27;45401;-78
2022/09/21 07:38:47;;;;;;;;;10.33;10.33;;;;;;;;5075034;27;45390;-79
2022/09/21 07:41:13;;;;;;;;;11.67;9.00;;;;;;;;5074556;27;45631;-80
2022/09/21 07:43:39;;;;;;;;;11.00;10.33;;;;;;;;5075387;27;46153;-83
2022/09/21 07:46:05;;;;;;;;;14.00;11.00;;;;;;;;5075826;27;45710;-75
2022/09/21 07:48:30;;;;;;;;;10.33;10.00;;;;;;;;5074009;27;46265;-78
2022/09/21 07:51:07;;;;;;;;;10.33;9.67;;;;;;;;5076662;27;45757;-82
2022/09/21 07:53:33;;;;;;;;;14.33;11.00;;;;;;;;5083369;27;46667;-75
2022/09/21 07:56:03;;;;;;;;;13.00;12.67;;;;;;;;5074604;27;45547;-75
2022/09/21 08:01:12;;;;;;;;;16.33;10.67;;;;;;;;5074450;28;45842;-74
2022/09/21 08:03:37;;;;;;;;;11.33;9.67;;;;;;;;5074240;27;45864;-75
2022/09/21 08:06:03;;;;;;;;;10.33;10.33;;;;;;;;5075902;27;45703;-79
2022/09/21 08:08:28;;;;;;;;;11.33;10.00;;;;;;;;5074984;27;45427;-78
2022/09/21 08:10:54;;;;;;;;;12.67;12.00;;;;;;;;5073549;27;45666;-78
2022/09/21 08:13:19;;;;;;;;;14.33;11.00;;;;;;;;5074684;27;46955;-82
2022/09/21 08:15:45;;;;;;;;;7.67;6.67;;;;;;;;5075306;27;45445;-78
2022/09/21 08:18:11;;;;;;;;;16.67;13.67;;;;;;;;5076374;27;45734;-78
2022/09/21 08:20:36;;;;;;;;;18.00;12.00;;;;;;;;5075582;28;45401;-79
2022/09/21 08:23:01;;;;;;;;;17.33;13.67;;;;;;;;5074627;28;45494;-77
2022/09/21 08:25:26;;;;;;;;;13.67;12.00;;;;;;;;5075862;27;45310;-82
2022/09/21 08:27:56;;;;;;;;;15.00;11.33;;;;;;;;5076712;27;45257;-82
2022/09/21 08:30:22;;;;;;;;;13.33;11.67;;;;;;;;5078452;27;45498;-82
2022/09/21 08:32:47;;;;;;;;;14.00;11.67;;;;;;;;5075671;28;47003;-76
2022/09/21 08:35:12;;;;;;;;;18.00;13.00;;;;;;;;5073938;27;45743;-76
2022/09/21 08:37:38;;;;;;;;;15.67;14.33;;;;;;;;5074918;27;45741;-76
2022/09/21 08:40:04;;;;;;;;;14.67;12.00;;;;;;;;5080540;27;45393;-79
2022/09/21 08:42:41;;;;;;;;;18.67;13.00;;;;;;;;5082139;27;47332;-81
2022/09/21 08:45:15;;;;;;;;;14.33;10.67;;;;;;;;5073879;27;45627;-73
2022/09/21 08:47:43;;;;;;;;;10.33;10.00;;;;;;;;5106551;27;45378;-76
2022/09/21 08:50:29;;;;;;;;;14.00;10.00;;;;;;;;5067856;27;45853;-75
2022/09/21 08:52:59;;;;;;;;;15.67;9.33;;;;;;;;5056598;27;45476;-75
2022/09/21 08:55:24;;;;;;;;;12.67;9.67;;;;;;;;5082866;27;45745;-76
2022/09/21 08:57:50;;;;;;;;;12.67;9.67;;;;;;;;5075643;27;45561;-75
2022/09/21 09:00:16;;;;;;;;;12.67;10.33;;;;;;;;5075152;27;45885;-74
2022/09/21 09:02:44;;;;;;;;;15.33;14.00;;;;;;;;5080644;27;45661;-73
2022/09/21 09:05:09;;;;;;;;;10.67;8.67;;;;;;;;5082254;27;45412;-80
2022/09/21 09:07:50;;;;;;;;;7.33;7.33;;;;;;;;5094792;27;44777;-82
2022/09/21 09:10:19;;;;;;;;;6.67;3.67;;;;;;;;5090845;27;45267;-83
2022/09/21 09:12:59;;;;;;;;;10.67;9.67;;;;;;;;5090578;27;45559;-80
2022/09/21 09:15:32;;;;;;;;;14.33;10.00;;;;;;;;5094773;27;45585;-81
2022/09/21 09:18:06;;;;;;;;;11.33;9.67;;;;;;;;5086983;27;45395;-79
2022/09/21 09:20:46;;;;;;;;;9.67;7.00;;;;;;;;5076224;28;45498;-79
2022/09/21 09:23:31;;;;;;;;;12.00;8.00;;;;;;;;5074383;27;45692;-79
2022/09/21 09:26:00;;;;;;;;;6.67;6.67;;;;;;;;5071775;27;45263;-80
2022/09/21 09:28:33;;;;;;;;;8.33;8.00;;;;;;;;5073188;27;45895;-78
2022/09/21 09:31:19;;;;;;;;;7.33;6.00;;;;;;;;5085589;27;45577;-79
2022/09/21 09:33:54;;;;;;;;;5.00;5.00;;;;;;;;5068700;27;45804;-80
2022/09/21 09:36:20;;;;;;;;;6.00;5.00;;;;;;;;5072881;27;45697;-79
2022/09/21 09:38:56;;;;;;;;;9.00;6.33;;;;;;;;5085421;27;45652;-79
2022/09/21 09:41:21;;;;;;;;;5.33;5.33;;;;;;;;5061875;27;45425;-80
2022/09/21 09:44:02;;;;;;;;;9.00;6.00;;;;;;;;5072854;27;46279;-77
2022/09/21 09:46:34;;;;;;;;;5.75;5.75;;;;;;;;5062784;28;45639;-77
2022/09/21 09:49:06;;;;;;;;;7.00;6.00;;;;;;;;5082074;27;45324;-77
2022/09/21 09:51:35;;;;;;;;;5.50;4.75;;;;;;;;5071832;27;45416;-75
2022/09/21 09:54:02;;;;;;;;;8.00;6.00;;;;;;;;5082394;27;45664;-76
2022/09/21 09:56:30;;;;;;;;;10.50;7.00;;;;;;;;5072283;28;45346;-78
2022/09/21 09:58:56;;;;;;;;;6.00;4.00;;;;;;;;5067741;27;45919;-77
2022/09/21 10:01:40;;;;;;;;;5.25;4.75;;;;;;;;5065151;28;45712;-75
2022/09/21 10:04:10;;;;;;;;;5.50;5.50;;;;;;;;5071616;28;45520;-76
2022/09/21 10:06:35;;;;;;;;;5.00;5.00;;;;;;;;5063468;27;45522;-77
2022/09/21 10:09:16;;;;;;;;;6.67;5.33;;;;;;;;5065468;27;45541;-76
2022/09/21 10:11:41;;;;;;;;;7.50;5.50;;;;;;;;5067567;27;46199;-76
2022/09/21 10:14:08;;;;;;;;;8.50;6.00;;;;;;;;5065278;27;45902;-75
2022/09/21 10:16:39;;;;;;;;;5.00;5.00;;;;;;;;5069364;27;45502;-76
2022/09/21 10:19:04;;;;;;;;;6.75;4.75;;;;;;;;5067332;27;45878;-75
2022/09/21 10:21:32;;;;;;;;;4.75;4.75;;;;;;;;5072080;27;45396;-76
2022/09/21 10:24:00;;;;;;;;;4.25;4.25;;;;;;;;5067293;27;45997;-81
2022/09/21 10:26:34;;;;;;;;;3.75;3.75;;;;;;;;5066284;27;45920;-78
2022/09/21 10:29:01;;;;;;;;;6.50;5.25;;;;;;;;5065354;27;46312;-79
2022/09/21 10:31:28;;;;;;;;;4.00;3.25;;;;;;;;5068028;28;46109;-84
2022/09/21 10:33:56;;;;;;;;;6.25;5.00;;;;;;;;5075399;27;46549;-85
2022/09/21 10:36:26;;;;;;;;;7.00;4.50;;;;;;;;5074211;27;45679;-80
2022/09/21 10:38:51;;;;;;;;;3.00;3.00;;;;;;;;5072691;27;45289;-85
2022/09/21 10:41:17;;;;;;;;;4.50;4.25;;;;;;;;5076356;27;45609;-82
2022/09/21 10:43:43;;;;;;;;;4.00;4.00;;;;;;;;5076085;27;46538;-81
2022/09/21 10:46:09;;;;;;;;;3.25;3.25;;;;;;;;5079026;27;45652;-77
2022/09/21 10:48:34;;;;;;;;;6.00;6.00;;;;;;;;5073194;27;45582;-75
2022/09/21 10:51:00;;;;;;;;;5.25;2.00;;;;;;;;5069322;27;46017;-73
2022/09/21 10:53:29;;;;;;;;;5.75;3.00;;;;;;;;5065327;27;46014;-77
2022/09/21 10:56:00;;;;;;;;;4.25;2.25;;;;;;;;5061699;27;45391;-73
2022/09/21 10:58:26;;;;;;;;;4.00;3.00;;;;;;;;5071980;27;45565;-73
2022/09/21 11:00:54;;;;;;;;;4.00;4.00;;;;;;;;5069711;27;45825;-75
2022/09/21 11:03:29;;;;;;;;;4.25;4.25;;;;;;;;5075170;27;47532;-75
2022/09/21 11:05:56;;;;;;;;;5.50;2.25;;;;;;;;5071758;27;45318;-77
2022/09/21 11:08:35;;;;;;;;;4.50;2.75;;;;;;;;5073183;27;45550;-78
2022/09/21 11:11:06;;;;;;;;;2.25;2.25;;;;;;;;5111059;27;46115;-77
2022/09/21 11:13:53;;;;;;;;;4.33;4.33;;;;;;;;5075603;27;45935;-75
2022/09/21 11:16:24;;;;;;;;;3.00;3.00;;;;;;;;5074186;27;45427;-75
2022/09/21 11:18:53;;;;;;;;;5.75;4.00;;;;;;;;5075280;27;45661;-77
2022/09/21 11:21:18;;;;;;;;;6.00;5.00;;;;;;;;5107017;27;45419;-76
2022/09/21 11:24:11;;;;;;;;;2.00;2.00;;;;;;;;5074293;27;46098;-76
2022/09/21 11:27:02;;;;;;;;;3.75;3.75;;;;;;;;5068293;28;45666;-76
2022/09/21 11:29:29;;;;;;;;;4.50;3.00;;;;;;;;5069806;27;45757;-76
2022/09/21 11:31:54;;;;;;;;;2.25;2.25;;;;;;;;5113826;27;46318;-74
2022/09/21 11:34:34;;;;;;;;;2.00;2.00;;;;;;;;5074637;27;45656;-74
2022/09/21 11:37:09;;;;;;;;;6.00;3.50;;;;;;;;5078550;27;45978;-74
2022/09/21 11:39:52;;;;;;;;;3.00;3.00;;;;;;;;5074693;27;45779;-75
2022/09/21 11:42:21;;;;;;;;;4.00;4.00;;;;;;;;5080925;27;47190;-76
2022/09/21 11:44:46;;;;;;;;;3.50;2.00;;;;;;;;5081118;27;45734;-76
2022/09/21 11:47:30;;;;;;;;;4.00;3.25;;;;;;;;5078398;27;45422;-73
2022/09/21 11:50:03;;;;;;;;;3.75;2.50;;;;;;;;5078944;27;45533;-75
2022/09/21 11:52:44;;;;;;;;;3.00;2.00;;;;;;;;5074618;27;45657;-76
2022/09/21 11:55:15;;;;;;;;;2.25;0.00;;;;;;;;5078016;27;46471;-74
2022/09/21 11:57:40;;;;;;;;;3.00;2.75;;;;;;;;5077124;27;45440;-77
2022/09/21 12:00:06;;;;;;;;;2.00;2.00;;;;;;;;5073419;27;45309;-76
2022/09/21 12:02:39;;;;;;;;;1.00;1.00;;;;;;;;5085476;27;45441;-75
2022/09/21 12:05:17;;;;;;;;;3.00;2.00;;;;;;;;5076436;27;46090;-75
2022/09/21 12:07:53;;;;;;;;;3.00;3.00;;;;;;;;5074053;27;45343;-75
2022/09/21 12:10:31;;;;;;;;;1.50;1.50;;;;;;;;5107445;27;45539;-75
2022/09/21 12:13:19;;;;;;;;;2.25;2.25;;;;;;;;5073661;27;46110;-75
2022/09/21 12:15:50;;;;;;;;;4.25;3.25;;;;;;;;5070350;27;46523;-75
2022/09/21 12:18:15;;;;;;;;;2.00;2.00;;;;;;;;5073792;27;45421;-75
2022/09/21 12:20:49;;;;;;;;;1.75;1.75;;;;;;;;5073818;27;45301;-77
2022/09/21 12:23:20;;;;;;;;;2.50;1.00;;;;;;;;5107198;27;46355;-75
2022/09/21 12:25:50;;;;;;;;;1.75;1.25;;;;;;;;5073060;27;46699;-75
2022/09/21 12:28:23;;;;;;;;;1.25;1.25;;;;;;;;5082971;27;45387;-74
2022/09/21 12:30:53;;;;;;;;;3.00;1.75;;;;;;;;5090080;27;45408;-74
2022/09/21 12:33:24;;;;;;;;;2.75;1.75;;;;;;;;5072910;27;46013;-73
2022/09/21 12:36:01;;;;;;;;;2.33;2.00;;;;;;;;5073188;27;45363;-77
2022/09/21 12:38:28;;;;;;;;;4.00;1.00;;;;;;;;5072709;27;45389;-78
2022/09/21 12:41:20;;;;;;;;;2.67;2.00;;;;;;;;5073085;27;45431;-76
2022/09/21 12:43:52;;;;;;;;;2.33;1.67;;;;;;;;5070998;27;45708;-76
2022/09/21 12:46:22;;;;;;;;;1.00;1.00;;;;;;;;5073042;27;45825;-78
2022/09/21 12:48:48;;;;;;;;;3.00;3.00;;;;;;;;5073522;27;45682;-77
2022/09/21 12:51:40;;;;;;;;;3.00;2.00;;;;;;;;5078250;27;45626;-74
2022/09/21 12:54:07;;;;;;;;;1.00;1.00;;;;;;;;5064387;27;46178;-73
2022/09/21 12:57:02;;;;;;;;;3.33;3.33;;;;;;;;5073723;27;45690;-74
2022/09/21 12:59:38;;;;;;;;;1.00;1.00;;;;;;;;5062526;28;45388;-74
2022/09/21 13:02:21;;;;;;;;;3.00;2.00;;;;;;;;5073306;28;45307;-74
2022/09/21 13:04:51;;;;;;;;;1.00;1.00;;;;;;;;5072927;27;45846;-77
2022/09/21 13:07:16;;;;;;;;;3.00;1.33;;;;;;;;5072538;27;45456;-76
2022/09/21 13:09:43;;;;;;;;;1.00;1.00;;;;;;;;5105402;27;45375;-77
2022/09/21 13:12:12;;;;;;;;;4.00;1.67;;;;;;;;5072893;27;45315;-75
2022/09/21 13:14:42;;;;;;;;;3.25;2.00;;;;;;;;5071977;27;45356;-76
2022/09/21 13:17:17;;;;;;;;;2.67;2.33;;;;;;;;5072345;27;46997;-75
2022/09/21 13:19:42;;;;;;;;;3.50;2.00;;;;;;;;5086533;27;45495;-75
2022/09/21 13:22:19;;;;;;;;;1.00;1.00;;;;;;;;5071637;27;45839;-76
2022/09/21 13:25:05;;;;;;;;;4.00;2.00;;;;;;;;5072873;27;45495;-77
2022/09/21 13:27:49;;;;;;;;;0.25;0.25;;;;;;;;5071058;27;46816;-75
2022/09/21 13:30:27;;;;;;;;;2.00;2.00;;;;;;;;5099983;27;45473;-84
2022/09/21 13:32:53;;;;;;;;;3.67;1.67;;;;;;;;5074549;27;45775;-79
2022/09/21 13:35:37;;;;;;;;;2.50;1.00;;;;;;;;5073724;27;45635;-82
2022/09/21 13:38:22;;;;;;;;;1.00;1.00;;;;;;;;5079678;27;46187;-83
2022/09/21 13:41:18;;;;;;;;;2.00;1.00;;;;;;;;5073679;27;45812;-82
2022/09/21 13:43:54;;;;;;;;;2.00;1.00;;;;;;;;5077480;27;45379;-81
2022/09/21 13:46:35;;;;;;;;;2.00;2.00;;;;;;;;5074386;27;45831;-82
2022/09/21 13:49:09;;;;;;;;;2.00;0.50;;;;;;;;5073496;27;45555;-82
2022/09/21 13:51:53;;;;;;;;;1.00;1.00;;;;;;;;5066662;27;45435;-82
2022/09/21 13:54:21;;;;;;;;;1.00;1.00;;;;;;;;5062213;27;45818;-82
2022/09/21 13:56:55;;;;;;;;;1.00;1.00;;;;;;;;5073886;27;45766;-76
2022/09/21 13:59:23;;;;;;;;;2.00;0.33;;;;;;;;5073221;27;46659;-77
2022/09/21 14:01:49;;;;;;;;;1.67;1.00;;;;;;;;5072554;27;45896;-77
2022/09/21 14:04:38;;;;;;;;;3.00;1.00;;;;;;;;5071671;28;45604;-78
2022/09/21 14:07:06;;;;;;;;;1.33;1.00;;;;;;;;5071229;27;45560;-78
2022/09/21 14:09:40;;;;;;;;;1.67;1.00;;;;;;;;5072517;27;45700;-75
2022/09/21 14:12:09;;;;;;;;;2.00;1.00;;;;;;;;5072541;27;45357;-77
2022/09/21 14:14:42;;;;;;;;;3.67;2.33;;;;;;;;5112650;27;45482;-78
2022/09/21 14:17:27;;;;;;;;;2.00;2.00;;;;;;;;5072800;27;45421;-75
2022/09/21 14:19:52;;;;;;;;;2.00;2.00;;;;;;;;5074690;27;47266;-74
2022/09/21 14:22:19;;;;;;;;;2.00;1.00;;;;;;;;5072610;27;45446;-74
2022/09/21 14:24:50;;;;;;;;;1.00;1.00;;;;;;;;5072843;27;45585;-75
2022/09/21 14:27:24;;;;;;;;;0.75;0.75;;;;;;;;5073029;27;45364;-75
2022/09/21 14:30:02;;;;;;;;;2.00;2.00;;;;;;;;5066350;28;46632;-75
2022/09/21 14:32:30;;;;;;;;;2.00;2.00;;;;;;;;5072296;27;45775;-76
2022/09/21 14:35:10;;;;;;;;;2.25;2.00;;;;;;;;5071559;27;45680;-76
2022/09/21 14:37:38;;;;;;;;;4.00;2.00;;;;;;;;5071803;28;45701;-76
2022/09/21 14:40:15;;;;;;;;;2.50;1.75;;;;;;;;5063884;27;46681;-76
2022/09/21 14:42:41;;;;;;;;;2.00;2.00;;;;;;;;5108040;27;45975;-76
2022/09/21 14:45:13;;;;;;;;;0.25;0.25;;;;;;;;5065894;27;45353;-77
2022/09/21 14:47:44;;;;;;;;;1.00;1.00;;;;;;;;5069196;27;45789;-76
2022/09/21 14:50:10;;;;;;;;;2.67;2.00;;;;;;;;5076485;27;46628;-77
2022/09/21 14:52:54;;;;;;;;;1.67;1.00;;;;;;;;5070448;27;45517;-76
2022/09/21 14:55:38;;;;;;;;;2.00;2.00;;;;;;;;5074131;27;45421;-76
2022/09/21 14:58:03;;;;;;;;;2.00;1.00;;;;;;;;5066875;27;45724;-79